sensor_id;sensor_type;location;lat;lon;timestamp;pressure;altitude;pressure_sealevel;temperature;humidity
22862;BME280;11598;50.652;6.172;2023-04-29T00:08:12;96251.69;;;8.61;100.00
22862;BME280;11598;50.652;6.172;2023-04-29T00:18:14;96265.06;;;8.55;100.00
22862;BME280;11598;50.652;6.172;2023-04-29T00:28:14;96271.59;;;8.35;100.00
22862;BME280;11598;50.652;6.172;2023-04-29T00:38:14;96270.25;;;8.04;100.00
22862;BME280;11598;50.652;6.172;2023-04-29T00:48:15;96278.63;;;7.95;100.00
22862;BME280;11598;50.652;6.172;2023-04-29T00:58:17;96286.72;;;7.90;100.00
22862;BME280;11598;50.652;6.172;2023-04-29T01:09:02;96293.75;;;7.88;100.00
22862;BME280;11598;50.652;6.172;2023-04-29T01:18:43;96298.28;;;7.84;100.00
22862;BME280;11598;50.652;6.172;2023-04-29T01:49:43;96311.28;;;7.70;100.00
22862;BME280;11598;50.652;6.172;2023-04-29T01:59:45;96297.63;;;7.68;100.00
22862;BME280;11598;50.652;6.172;2023-04-29T02:09:46;96311.06;;;7.60;100.00
22862;BME280;11598;50.652;6.172;2023-04-29T02:19:46;96312.16;;;7.56;100.00
22862;BME280;11598;50.652;6.172;2023-04-29T02:29:46;96321.91;;;7.53;100.00
22862;BME280;11598;50.652;6.172;2023-04-29T02:39:47;96328.19;;;7.49;100.00
22862;BME280;11598;50.652;6.172;2023-04-29T02:49:48;96335.28;;;7.45;100.00
22862;BME280;11598;50.652;6.172;2023-04-29T02:59:48;96338.00;;;7.44;100.00
22862;BME280;11598;50.652;6.172;2023-04-29T03:09:48;96338.09;;;7.42;100.00
22862;BME280;11598;50.652;6.172;2023-04-29T03:19:49;96335.59;;;7.40;100.00
22862;BME280;11598;50.652;6.172;2023-04-29T03:29:50;96338.38;;;7.37;100.00
22862;BME280;11598;50.652;6.172;2023-04-29T03:39:50;96347.16;;;7.35;100.00
22862;BME280;11598;50.652;6.172;2023-04-29T03:49:50;96341.34;;;7.31;100.00
22862;BME280;11598;50.652;6.172;2023-04-29T03:59:51;96350.59;;;7.21;100.00
22862;BME280;11598;50.652;6.172;2023-04-29T04:09:51;96348.78;;;7.09;100.00
22862;BME280;11598;50.652;6.172;2023-04-29T04:19:52;96352.59;;;7.03;100.00
22862;BME280;11598;50.652;6.172;2023-04-29T04:29:53;96361.44;;;6.99;100.00
22862;BME280;11598;50.652;6.172;2023-04-29T04:39:54;96385.78;;;6.95;100.00
22862;BME280;11598;50.652;6.172;2023-04-29T04:49:54;96398.16;;;6.90;100.00
22862;BME280;11598;50.652;6.172;2023-04-29T04:59:54;96412.44;;;6.81;100.00
22862;BME280;11598;50.652;6.172;2023-04-29T05:09:55;96434.75;;;6.68;100.00
22862;BME280;11598;50.652;6.172;2023-04-29T05:19:55;96442.13;;;6.60;100.00
22862;BME280;11598;50.652;6.172;2023-04-29T05:29:56;96453.19;;;6.47;100.00
22862;BME280;11598;50.652;6.172;2023-04-29T05:39:56;96461.81;;;6.46;100.00
22862;BME280;11598;50.652;6.172;2023-04-29T05:49:57;96470.41;;;6.47;100.00
22862;BME280;11598;50.652;6.172;2023-04-29T05:59:57;96490.06;;;6.49;100.00
22862;BME280;11598;50.652;6.172;2023-04-29T06:09:59;96495.97;;;6.51;100.00
22862;BME280;11598;50.652;6.172;2023-04-29T06:19:59;96498.22;;;6.42;100.00
22862;BME280;11598;50.652;6.172;2023-04-29T06:30:01;96513.97;;;6.37;100.00
22862;BME280;11598;50.652;6.172;2023-04-29T06:40:01;96517.47;;;6.36;100.00
22862;BME280;11598;50.652;6.172;2023-04-29T06:50:02;96542.97;;;6.26;100.00
22862;BME280;11598;50.652;6.172;2023-04-29T07:00:03;96550.78;;;6.25;100.00
22862;BME280;11598;50.652;6.172;2023-04-29T07:10:04;96562.41;;;6.32;100.00
22862;BME280;11598;50.652;6.172;2023-04-29T07:20:05;96565.75;;;6.34;100.00
22862;BME280;11598;50.652;6.172;2023-04-29T07:30:06;96585.13;;;6.41;100.00
22862;BME280;11598;50.652;6.172;2023-04-29T07:40:07;96588.97;;;6.34;100.00
22862;BME280;11598;50.652;6.172;2023-04-29T07:50:07;96600.97;;;6.35;100.00
22862;BME280;11598;50.652;6.172;2023-04-29T08:00:08;96606.13;;;6.35;100.00
22862;BME280;11598;50.652;6.172;2023-04-29T08:10:09;96626.66;;;6.52;100.00
22862;BME280;11598;50.652;6.172;2023-04-29T08:20:10;96627.06;;;6.61;100.00
22862;BME280;11598;50.652;6.172;2023-04-29T08:30:11;96634.34;;;6.54;100.00
22862;BME280;11598;50.652;6.172;2023-04-29T08:40:12;96640.91;;;6.44;100.00
22862;BME280;11598;50.652;6.172;2023-04-29T08:50:12;96656.25;;;6.47;100.00
22862;BME280;11598;50.652;6.172;2023-04-29T09:00:13;96650.53;;;6.72;100.00
22862;BME280;11598;50.652;6.172;2023-04-29T09:10:14;96664.50;;;6.84;100.00
22862;BME280;11598;50.652;6.172;2023-04-29T09:30:19;96688.25;;;6.74;100.00
22862;BME280;11598;50.652;6.172;2023-04-29T09:40:27;96703.44;;;6.49;100.00
22862;BME280;11598;50.652;6.172;2023-04-29T09:50:30;96719.78;;;6.49;100.00
22862;BME280;11598;50.652;6.172;2023-04-29T10:00:32;96721.59;;;6.63;100.00
22862;BME280;11598;50.652;6.172;2023-04-29T10:10:33;96729.06;;;6.84;100.00
22862;BME280;11598;50.652;6.172;2023-04-29T10:20:34;96747.22;;;7.14;100.00
22862;BME280;11598;50.652;6.172;2023-04-29T10:30:37;96739.19;;;7.18;100.00
22862;BME280;11598;50.652;6.172;2023-04-29T10:40:44;96739.22;;;7.03;100.00
22862;BME280;11598;50.652;6.172;2023-04-29T11:00:47;96744.41;;;6.87;100.00
22862;BME280;11598;50.652;6.172;2023-04-29T11:10:47;96748.16;;;6.97;100.00
22862;BME280;11598;50.652;6.172;2023-04-29T11:31:03;96745.69;;;8.58;100.00
22862;BME280;11598;50.652;6.172;2023-04-29T11:41:03;96747.41;;;8.72;100.00
22862;BME280;11598;50.652;6.172;2023-04-29T11:51:04;96757.09;;;8.97;100.00
22862;BME280;11598;50.652;6.172;2023-04-29T12:01:05;96759.47;;;8.73;100.00
22862;BME280;11598;50.652;6.172;2023-04-29T12:11:06;96767.59;;;8.66;100.00
22862;BME280;11598;50.652;6.172;2023-04-29T12:21:06;96774.91;;;8.60;100.00
22862;BME280;11598;50.652;6.172;2023-04-29T12:31:08;96774.16;;;8.58;100.00
22862;BME280;11598;50.652;6.172;2023-04-29T12:41:08;96772.53;;;8.57;100.00
22862;BME280;11598;50.652;6.172;2023-04-29T12:51:10;96783.66;;;8.86;100.00
22862;BME280;11598;50.652;6.172;2023-04-29T13:01:10;96777.78;;;9.11;100.00
22862;BME280;11598;50.652;6.172;2023-04-29T13:11:11;96782.66;;;8.74;100.00
22862;BME280;11598;50.652;6.172;2023-04-29T13:21:12;96793.06;;;8.45;100.00
22862;BME280;11598;50.652;6.172;2023-04-29T13:31:12;96789.22;;;8.37;100.00
22862;BME280;11598;50.652;6.172;2023-04-29T13:41:13;96783.94;;;8.81;100.00
22862;BME280;11598;50.652;6.172;2023-04-29T13:51:13;96791.34;;;9.29;100.00
22862;BME280;11598;50.652;6.172;2023-04-29T14:01:13;96797.53;;;9.26;100.00
22862;BME280;11598;50.652;6.172;2023-04-29T14:11:14;96793.94;;;9.15;100.00
22862;BME280;11598;50.652;6.172;2023-04-29T14:21:15;96810.25;;;9.17;100.00
22862;BME280;11598;50.652;6.172;2023-04-29T14:31:15;96811.28;;;9.41;100.00
22862;BME280;11598;50.652;6.172;2023-04-29T14:41:17;96826.06;;;9.53;100.00
22862;BME280;11598;50.652;6.172;2023-04-29T14:51:17;96833.56;;;9.58;100.00
22862;BME280;11598;50.652;6.172;2023-04-29T15:01:18;96842.44;;;9.54;99.92
22862;BME280;11598;50.652;6.172;2023-04-29T15:11:18;96841.72;;;9.52;99.93
22862;BME280;11598;50.652;6.172;2023-04-29T15:21:18;96847.50;;;9.70;100.00
22862;BME280;11598;50.652;6.172;2023-04-29T15:31:20;96847.03;;;9.90;97.94
22862;BME280;11598;50.652;6.172;2023-04-29T15:41:20;96836.22;;;9.97;96.54
22862;BME280;11598;50.652;6.172;2023-04-29T15:51:20;96840.69;;;9.94;95.76
22862;BME280;11598;50.652;6.172;2023-04-29T16:01:21;96842.44;;;9.81;94.23
22862;BME280;11598;50.652;6.172;2023-04-29T16:11:21;96849.50;;;9.79;94.58
22862;BME280;11598;50.652;6.172;2023-04-29T16:21:22;96863.69;;;9.73;94.31
22862;BME280;11598;50.652;6.172;2023-04-29T16:31:23;96871.56;;;9.45;93.88
22862;BME280;11598;50.652;6.172;2023-04-29T16:41:23;96863.28;;;9.25;93.33
22862;BME280;11598;50.652;6.172;2023-04-29T16:51:25;96867.75;;;9.09;93.73
22862;BME280;11598;50.652;6.172;2023-04-29T17:01:26;96875.19;;;9.01;94.01
22862;BME280;11598;50.652;6.172;2023-04-29T17:11:27;96879.09;;;8.94;94.41
22862;BME280;11598;50.652;6.172;2023-04-29T17:21:27;96888.72;;;8.92;94.52
22862;BME280;11598;50.652;6.172;2023-04-29T17:31:29;96878.63;;;8.87;94.96
22862;BME280;11598;50.652;6.172;2023-04-29T17:41:44;96875.91;;;8.88;95.50
22862;BME280;11598;50.652;6.172;2023-04-29T17:51:44;96876.31;;;8.82;96.47
22862;BME280;11598;50.652;6.172;2023-04-29T18:01:45;96874.63;;;8.81;97.18
22862;BME280;11598;50.652;6.172;2023-04-29T18:11:45;96877.31;;;8.80;97.86
22862;BME280;11598;50.652;6.172;2023-04-29T18:21:46;96876.66;;;8.76;98.23
22862;BME280;11598;50.652;6.172;2023-04-29T18:31:46;96872.69;;;8.71;98.93
22862;BME280;11598;50.652;6.172;2023-04-29T18:41:46;96875.72;;;8.63;99.38
22862;BME280;11598;50.652;6.172;2023-04-29T18:51:47;96873.25;;;8.47;99.80
22862;BME280;11598;50.652;6.172;2023-04-29T19:01:47;96888.25;;;8.26;100.00
22862;BME280;11598;50.652;6.172;2023-04-29T19:11:48;96901.56;;;8.04;100.00
22862;BME280;11598;50.652;6.172;2023-04-29T19:21:48;96912.97;;;7.86;100.00
22862;BME280;11598;50.652;6.172;2023-04-29T19:31:49;96932.59;;;7.74;100.00
22862;BME280;11598;50.652;6.172;2023-04-29T19:41:50;96935.19;;;7.58;100.00
22862;BME280;11598;50.652;6.172;2023-04-29T19:51:50;96935.75;;;7.15;100.00
22862;BME280;11598;50.652;6.172;2023-04-29T20:01:52;96934.09;;;6.81;100.00
22862;BME280;11598;50.652;6.172;2023-04-29T20:11:52;96938.19;;;6.52;100.00
22862;BME280;11598;50.652;6.172;2023-04-29T20:21:52;96949.63;;;6.29;100.00
22862;BME280;11598;50.652;6.172;2023-04-29T20:31:53;96949.53;;;6.13;100.00
22862;BME280;11598;50.652;6.172;2023-04-29T20:41:53;96951.13;;;5.98;100.00
22862;BME280;11598;50.652;6.172;2023-04-29T20:51:57;96961.25;;;5.84;100.00
22862;BME280;11598;50.652;6.172;2023-04-29T21:01:58;96965.72;;;5.61;100.00
22862;BME280;11598;50.652;6.172;2023-04-29T21:11:58;96966.34;;;5.47;100.00
22862;BME280;11598;50.652;6.172;2023-04-29T21:22:00;96970.31;;;5.36;100.00
22862;BME280;11598;50.652;6.172;2023-04-29T21:32:00;96967.19;;;5.29;100.00
22862;BME280;11598;50.652;6.172;2023-04-29T21:42:01;96973.63;;;5.39;100.00
22862;BME280;11598;50.652;6.172;2023-04-29T21:52:03;96979.59;;;5.59;100.00
22862;BME280;11598;50.652;6.172;2023-04-29T22:02:03;96984.31;;;5.87;100.00
22862;BME280;11598;50.652;6.172;2023-04-29T22:12:18;96978.09;;;6.10;100.00
22862;BME280;11598;50.652;6.172;2023-04-29T22:22:18;96986.44;;;6.15;100.00
22862;BME280;11598;50.652;6.172;2023-04-29T22:32:19;96998.28;;;6.19;100.00
22862;BME280;11598;50.652;6.172;2023-04-29T22:42:19;97004.97;;;6.23;100.00
22862;BME280;11598;50.652;6.172;2023-04-29T22:52:19;96999.50;;;6.29;100.00
22862;BME280;11598;50.652;6.172;2023-04-29T23:02:20;96995.63;;;6.38;100.00
22862;BME280;11598;50.652;6.172;2023-04-29T23:12:26;97004.91;;;6.42;100.00
22862;BME280;11598;50.652;6.172;2023-04-29T23:22:26;97004.75;;;6.45;100.00
22862;BME280;11598;50.652;6.172;2023-04-29T23:32:27;97005.66;;;6.44;100.00
22862;BME280;11598;50.652;6.172;2023-04-29T23:42:27;97009.75;;;6.48;100.00
22862;BME280;11598;50.652;6.172;2023-04-29T23:52:27;97016.91;;;6.43;100.00
